Time;durP1;ratioP1;P1;durP2;ratioP2;P2;SDS_P1;SDS_P2;PMS_P1;PMS_P2;Temp;Humidity;BMP_temperature;BMP_pressure;BME280_temperature;BME280_humidity;BME280_pressure;Samples;Min_cycle;Max_cycle;Signal;HPM_P1;HPM_P2
2021/12/18 00:01:28;;;;;;;31.55;16.83;;;;;;;4.46;100.00;99996.75;5047922;28;20663;-54
2021/12/18 00:03:54;;;;;;;30.85;16.15;;;;;;;4.44;100.00;100002.75;5047497;28;20037;-54
2021/12/18 00:06:20;;;;;;;29.40;15.05;;;;;;;4.33;100.00;100001.72;5046684;28;20494;-56
2021/12/18 00:08:46;;;;;;;31.65;16.27;;;;;;;4.36;100.00;99996.63;5050097;28;20025;-53
2021/12/18 00:11:12;;;;;;;28.00;15.05;;;;;;;4.18;100.00;99998.91;5051442;28;20445;-55
2021/12/18 00:13:38;;;;;;;27.60;14.02;;;;;;;4.22;100.00;99998.09;5050619;28;20029;-55
2021/12/18 00:16:04;;;;;;;28.90;14.20;;;;;;;4.20;100.00;100002.38;5051070;28;20337;-55
2021/12/18 00:18:30;;;;;;;28.30;14.55;;;;;;;4.44;100.00;99992.41;5051159;28;20052;-55
2021/12/18 00:20:57;;;;;;;30.33;13.45;;;;;;;4.09;100.00;99999.59;5048517;28;20049;-55
2021/12/18 00:23:23;;;;;;;28.23;14.38;;;;;;;4.23;100.00;100003.28;5049083;28;20017;-55
2021/12/18 00:25:49;;;;;;;27.75;14.13;;;;;;;3.99;100.00;100010.63;5049325;28;20047;-55
2021/12/18 00:28:14;;;;;;;28.42;13.82;;;;;;;3.88;100.00;100014.72;5051210;28;20035;-54
2021/12/18 00:30:39;;;;;;;32.92;14.98;;;;;;;4.03;100.00;100005.53;5050633;28;20045;-55
2021/12/18 00:33:05;;;;;;;31.75;15.57;;;;;;;4.33;100.00;100009.47;5049518;28;20033;-55
2021/12/18 00:35:33;;;;;;;27.33;13.27;;;;;;;4.31;100.00;99990.50;5051446;28;20037;-54
2021/12/18 00:38:03;;;;;;;27.60;13.50;;;;;;;4.42;100.00;99996.69;5049079;28;20032;-54
2021/12/18 00:40:31;;;;;;;30.60;13.15;;;;;;;4.19;100.00;99995.44;5048509;28;20506;-55
2021/12/18 00:43:03;;;;;;;26.90;13.82;;;;;;;4.13;100.00;99992.78;5053175;28;20029;-54
2021/12/18 00:45:29;;;;;;;30.40;14.07;;;;;;;4.09;100.00;100003.91;5044376;28;20522;-54
2021/12/18 00:47:56;;;;;;;29.98;14.63;;;;;;;4.37;100.00;100005.22;5049293;28;20270;-55
2021/12/18 00:50:28;;;;;;;28.52;14.18;;;;;;;4.28;100.00;100013.69;5046932;28;20024;-54
2021/12/18 00:52:54;;;;;;;30.33;14.40;;;;;;;4.15;100.00;100015.19;5050783;28;20025;-54
2021/12/18 00:55:22;;;;;;;29.40;14.05;;;;;;;3.83;100.00;100018.09;5048135;28;20036;-54
2021/12/18 00:57:50;;;;;;;34.08;16.52;;;;;;;4.08;100.00;100022.81;5032601;28;20033;-54
2021/12/18 01:00:22;;;;;;;27.83;14.02;;;;;;;4.23;100.00;100023.97;5050521;28;20021;-57
2021/12/18 01:02:49;;;;;;;39.92;18.02;;;;;;;4.39;100.00;100017.34;5048875;28;20025;-55
2021/12/18 01:05:15;;;;;;;31.83;14.98;;;;;;;3.88;100.00;100025.03;5047336;28;20693;-55
2021/12/18 01:07:41;;;;;;;29.60;14.48;;;;;;;4.09;100.00;100019.41;5048064;28;20486;-55
2021/12/18 01:10:32;;;;;;;28.52;13.85;;;;;;;4.25;100.00;100024.00;5047150;28;20024;-54
2021/12/18 01:12:59;;;;;;;29.40;14.38;;;;;;;4.18;100.00;100019.56;5048508;28;20055;-54
2021/12/18 01:23:22;;;;;;;33.53;15.30;;;;;;;4.10;100.00;100036.63;5047509;28;20032;-54
2021/12/18 01:25:48;;;;;;;32.05;15.35;;;;;;;3.99;100.00;100028.72;5048715;28;20047;-54
2021/12/18 01:28:14;;;;;;;32.42;15.23;;;;;;;4.12;100.00;100025.50;5050326;28;20024;-53
2021/12/18 01:30:40;;;;;;;33.25;15.68;;;;;;;3.93;100.00;100034.59;5048552;28;20037;-54
2021/12/18 01:33:05;;;;;;;35.72;15.40;;;;;;;4.19;100.00;100036.78;5046466;28;20071;-53
2021/12/18 01:35:31;;;;;;;35.85;15.25;;;;;;;4.11;100.00;100035.78;5049236;28;20043;-53
2021/12/18 01:37:57;;;;;;;35.65;14.82;;;;;;;4.36;100.00;100035.38;5048728;28;20032;-54
2021/12/18 01:40:23;;;;;;;31.35;14.65;;;;;;;3.94;100.00;100036.34;5047325;28;20127;-55
2021/12/18 01:45:34;;;;;;;31.35;15.40;;;;;;;3.98;100.00;100037.28;5049377;28;20036;-53
2021/12/18 01:53:28;;;;;;;28.00;13.77;;;;;;;4.24;100.00;100030.00;5048928;28;20059;-54
2021/12/18 01:55:53;;;;;;;31.63;13.85;;;;;;;4.42;100.00;100025.13;5048763;28;20487;-56
2021/12/18 01:58:23;;;;;;;33.90;15.13;;;;;;;4.49;100.00;100020.94;5049066;28;20032;-55
2021/12/18 02:00:50;;;;;;;31.58;14.15;;;;;;;4.35;100.00;100022.44;5047806;28;20170;-54
2021/12/18 02:03:15;;;;;;;32.58;14.95;;;;;;;4.28;100.00;100020.56;5046755;28;20025;-54
2021/12/18 02:05:40;;;;;;;33.22;15.32;;;;;;;4.36;100.00;100013.84;5047096;28;20043;-55
2021/12/18 02:08:07;;;;;;;26.10;12.80;;;;;;;4.55;100.00;100015.84;5046300;28;20108;-55
2021/12/18 02:10:43;;;;;;;31.05;13.98;;;;;;;4.44;100.00;100007.94;5056716;28;20033;-55
2021/12/18 02:21:25;;;;;;;31.52;14.70;;;;;;;4.22;100.00;100017.03;5048301;28;20160;-54
2021/12/18 02:23:51;;;;;;;31.35;14.32;;;;;;;4.31;100.00;100012.88;5046326;28;20024;-54
2021/12/18 02:26:16;;;;;;;32.83;15.52;;;;;;;3.96;100.00;100024.34;5048823;28;20051;-54
2021/12/18 02:28:46;;;;;;;32.63;16.38;;;;;;;4.11;100.00;100010.81;5047702;28;20677;-56
2021/12/18 02:31:13;;;;;;;28.15;12.98;;;;;;;4.31;100.00;100011.16;5046154;28;20033;-55
2021/12/18 02:33:39;;;;;;;30.00;14.32;;;;;;;4.43;100.00;100006.22;5047750;28;20044;-54
2021/12/18 02:36:07;;;;;;;28.38;14.15;;;;;;;4.43;100.00;100003.63;5049322;28;20045;-54
2021/12/18 02:41:39;;;;;;;32.17;14.18;;;;;;;4.47;100.00;100001.06;5045920;28;20532;-54
2021/12/18 02:44:10;;;;;;;29.77;13.63;;;;;;;4.57;100.00;100002.97;5048015;28;20486;-54
2021/12/18 02:46:37;;;;;;;31.10;14.95;;;;;;;4.39;100.00;100000.94;5049601;28;20037;-57
2021/12/18 02:49:12;;;;;;;31.85;13.60;;;;;;;4.52;100.00;99994.25;5049941;28;20082;-54
2021/12/18 02:51:37;;;;;;;30.02;14.05;;;;;;;4.61;100.00;99996.97;5049018;28;20045;-55
2021/12/18 02:54:03;;;;;;;32.95;14.80;;;;;;;4.44;100.00;99997.59;5048356;28;20062;-54
2021/12/18 02:56:29;;;;;;;30.02;14.18;;;;;;;4.61;100.00;99996.97;5045811;28;20049;-56
2021/12/18 02:59:04;;;;;;;29.38;13.10;;;;;;;4.40;100.00;99990.66;5048000;28;20052;-56
2021/12/18 03:01:30;;;;;;;29.10;13.88;;;;;;;4.30;100.00;99991.38;5047868;28;20110;-55
2021/12/18 03:03:58;;;;;;;28.00;13.65;;;;;;;4.49;100.00;99983.91;5049445;28;20028;-54
2021/12/18 03:06:33;;;;;;;35.88;15.07;;;;;;;4.66;100.00;99979.84;5050121;28;20040;-55
2021/12/18 03:25:12;;;;;;;32.20;14.63;;;;;;;4.10;100.00;99977.22;5048715;28;21022;-53
2021/12/18 03:27:38;;;;;;;29.20;13.98;;;;;;;4.50;100.00;99975.28;5050808;28;20031;-54
2021/12/18 03:30:05;;;;;;;36.22;15.07;;;;;;;4.51;100.00;99969.28;5045641;28;20044;-54
2021/12/18 03:32:31;;;;;;;30.85;14.38;;;;;;;4.30;100.00;99973.28;5046627;28;20037;-55
2021/12/18 03:34:56;;;;;;;30.40;14.57;;;;;;;4.38;100.00;99975.97;5048579;28;20025;-55
2021/12/18 03:37:22;;;;;;;32.80;14.18;;;;;;;4.38;100.00;99971.66;5046541;28;20045;-54
2021/12/18 03:39:48;;;;;;;33.55;14.70;;;;;;;4.42;100.00;99973.44;5047368;28;20017;-54
2021/12/18 03:42:14;;;;;;;33.47;13.38;;;;;;;4.49;100.00;99970.97;5048724;28;20136;-55
2021/12/18 03:44:40;;;;;;;35.53;15.52;;;;;;;4.52;100.00;99971.00;5051907;28;20024;-56
2021/12/18 03:47:06;;;;;;;33.47;15.15;;;;;;;4.44;100.00;99976.91;5050258;28;20044;-54
2021/12/18 03:49:33;;;;;;;33.67;15.45;;;;;;;4.23;100.00;99984.34;5050483;28;20024;-55
2021/12/18 03:51:58;;;;;;;32.47;13.70;;;;;;;4.30;100.00;99980.13;5051122;28;20049;-56
2021/12/18 03:54:24;;;;;;;30.98;14.75;;;;;;;4.28;100.00;99984.41;5049037;28;20025;-57
2021/12/18 03:56:50;;;;;;;30.65;14.60;;;;;;;4.25;100.00;99990.41;5052323;28;20029;-58
2021/12/18 03:59:16;;;;;;;35.45;15.32;;;;;;;4.40;100.00;99990.66;5050254;28;20556;-55
2021/12/18 04:01:41;;;;;;;34.45;14.75;;;;;;;4.24;100.00;99988.66;5049033;28;20035;-56
2021/12/18 04:04:07;;;;;;;33.92;14.23;;;;;;;4.37;100.00;99990.59;5049498;28;20037;-55
2021/12/18 04:06:32;;;;;;;29.80;13.07;;;;;;;4.43;100.00;99976.91;5050214;28;20127;-56
2021/12/18 04:08:58;;;;;;;33.88;14.82;;;;;;;4.38;100.00;99976.84;5051792;28;20094;-55
2021/12/18 04:11:24;;;;;;;33.25;14.60;;;;;;;4.08;100.00;99977.22;5051485;28;20037;-57
2021/12/18 04:13:49;;;;;;;34.35;14.82;;;;;;;4.25;100.00;99977.50;5051260;28;20115;-55
2021/12/18 04:16:16;;;;;;;39.33;15.70;;;;;;;4.16;100.00;99974.75;5049543;28;20414;-56
2021/12/18 04:18:42;;;;;;;34.60;15.43;;;;;;;4.14;100.00;99976.44;5049759;28;20033;-56
2021/12/18 04:21:08;;;;;;;30.80;13.98;;;;;;;4.32;100.00;99975.84;5048692;28;20677;-55
2021/12/18 04:23:33;;;;;;;32.45;14.77;;;;;;;4.35;100.00;99981.09;5051974;28;20177;-56
2021/12/18 04:25:59;;;;;;;33.80;14.30;;;;;;;4.23;100.00;99979.19;5050519;28;20436;-54
2021/12/18 04:28:24;;;;;;;40.47;16.10;;;;;;;4.38;100.00;99982.00;5050370;28;20055;-55
2021/12/18 04:30:50;;;;;;;34.70;14.75;;;;;;;4.44;100.00;99979.50;5050738;28;20032;-54
2021/12/18 04:33:16;;;;;;;35.33;15.20;;;;;;;4.28;100.00;99982.69;5051638;28;20068;-56
2021/12/18 04:35:42;;;;;;;35.53;14.77;;;;;;;4.33;100.00;99988.81;5048705;28;20056;-56
2021/12/18 04:38:08;;;;;;;39.80;14.38;;;;;;;4.51;100.00;99979.63;5051206;28;20418;-57
2021/12/18 04:40:34;;;;;;;34.38;15.23;;;;;;;4.58;100.00;99981.44;5050758;28;20110;-55
2021/12/18 04:43:00;;;;;;;34.85;15.55;;;;;;;4.55;100.00;99989.16;5049996;28;20017;-56
2021/12/18 04:45:25;;;;;;;35.80;14.57;;;;;;;4.49;100.00;99989.06;5048982;28;20051;-57
2021/12/18 04:47:51;;;;;;;33.25;14.57;;;;;;;4.38;100.00;99987.16;5050540;28;20024;-55
2021/12/18 04:50:16;;;;;;;33.05;15.02;;;;;;;4.46;100.00;99979.53;5050613;28;20052;-56
2021/12/18 04:52:42;;;;;;;31.77;14.85;;;;;;;4.30;100.00;99983.59;5049235;28;20124;-55
2021/12/18 04:55:07;;;;;;;37.92;15.25;;;;;;;4.38;100.00;99987.16;5048027;28;20039;-55
2021/12/18 04:57:33;;;;;;;38.67;16.17;;;;;;;4.52;100.00;99989.09;5050121;28;20024;-55
2021/12/18 04:59:59;;;;;;;35.70;14.95;;;;;;;4.73;100.00;99986.84;5049098;28;20033;-56
2021/12/18 05:02:34;;;;;;;36.00;16.60;;;;;;;4.51;100.00;99982.19;5048789;28;20123;-55
2021/12/18 05:05:00;;;;;;;37.70;15.10;;;;;;;4.52;100.00;99979.66;5049712;28;20056;-55
2021/12/18 05:07:26;;;;;;;41.83;16.30;;;;;;;4.55;100.00;99978.81;5051306;28;20437;-55
2021/12/18 05:09:52;;;;;;;38.03;15.52;;;;;;;4.41;100.00;99976.00;5050215;28;20036;-55
2021/12/18 05:12:17;;;;;;;36.10;15.18;;;;;;;4.54;100.00;99977.94;5048779;28;20043;-55
2021/12/18 05:14:42;;;;;;;39.63;16.08;;;;;;;4.46;100.00;99973.50;5049711;28;20032;-55
2021/12/18 05:17:08;;;;;;;38.17;16.15;;;;;;;4.55;100.00;99978.81;5049360;28;20037;-55
2021/12/18 05:19:33;;;;;;;39.90;16.05;;;;;;;4.36;100.00;99973.38;5050169;28;20118;-55
2021/12/18 05:21:58;;;;;;;39.53;16.13;;;;;;;4.28;100.00;99984.41;5049092;28;20037;-54
2021/12/18 05:24:24;;;;;;;39.60;15.60;;;;;;;4.21;100.00;99975.72;5050624;28;20024;-55
2021/12/18 05:26:49;;;;;;;37.20;16.10;;;;;;;4.43;100.00;99979.50;5052196;28;20037;-57
2021/12/18 05:29:15;;;;;;;40.55;16.27;;;;;;;4.26;100.00;99974.03;5048303;28;20066;-55
2021/12/18 05:31:40;;;;;;;39.33;16.20;;;;;;;4.32;100.00;99976.75;5048495;28;20159;-55
2021/12/18 05:34:05;;;;;;;36.40;15.35;;;;;;;4.53;100.00;99980.50;5048939;28;20039;-55
2021/12/18 05:36:35;;;;;;;37.75;15.88;;;;;;;4.25;100.00;99980.94;5048202;28;20033;-57
2021/12/18 05:39:07;;;;;;;38.10;15.27;;;;;;;4.53;100.00;99973.63;5047478;28;20021;-55
2021/12/18 05:41:32;;;;;;;36.85;15.88;;;;;;;4.59;100.00;99975.41;5049688;28;20028;-55
2021/12/18 05:43:59;;;;;;;38.08;15.57;;;;;;;4.39;100.00;99991.50;5048797;28;20024;-55
2021/12/18 05:46:25;;;;;;;38.53;16.33;;;;;;;4.44;100.00;99994.16;5048146;28;20029;-55
2021/12/18 05:48:50;;;;;;;37.80;15.77;;;;;;;4.62;100.00;99980.66;5048493;28;20029;-55
2021/12/18 05:51:16;;;;;;;37.78;15.73;;;;;;;4.37;100.00;99985.41;5048602;28;20033;-55
2021/12/18 05:53:41;;;;;;;36.53;15.75;;;;;;;4.17;100.00;99982.53;5047910;28;20059;-55
2021/12/18 05:56:07;;;;;;;41.03;16.55;;;;;;;4.30;100.00;99993.06;5047972;28;20656;-55
2021/12/18 05:58:32;;;;;;;41.30;16.30;;;;;;;4.21;100.00;99988.63;5048593;28;20024;-56
2021/12/18 06:00:57;;;;;;;37.03;15.23;;;;;;;4.38;100.00;99987.16;5048867;28;20477;-55
2021/12/18 06:03:23;;;;;;;39.83;15.30;;;;;;;4.51;100.00;99987.38;5049640;28;20115;-55
2021/12/18 06:05:48;;;;;;;37.88;15.13;;;;;;;4.48;100.00;99982.13;5048795;28;20124;-55
2021/12/18 06:08:14;;;;;;;41.35;15.63;;;;;;;4.59;100.00;99985.75;5048467;28;20029;-55
2021/12/18 06:10:40;;;;;;;40.47;15.88;;;;;;;4.53;100.00;99993.44;5049265;28;20036;-55
2021/12/18 06:13:05;;;;;;;38.58;15.90;;;;;;;4.23;100.00;99992.09;5048617;28;20083;-55
2021/12/18 06:15:32;;;;;;;37.38;16.08;;;;;;;4.34;100.00;99994.88;5047527;28;20474;-55
2021/12/18 06:17:58;;;;;;;44.00;16.80;;;;;;;4.16;100.00;99998.00;5049282;28;20552;-55
2021/12/18 06:20:25;;;;;;;37.15;15.68;;;;;;;4.35;100.00;100001.75;5048735;28;20036;-55
2021/12/18 06:22:51;;;;;;;40.15;15.98;;;;;;;4.60;100.00;99997.84;5047220;28;20708;-54
2021/12/18 06:25:16;;;;;;;40.53;16.20;;;;;;;4.59;100.00;100001.25;5050123;28;20033;-55
2021/12/18 06:27:41;;;;;;;40.67;16.42;;;;;;;4.64;100.00;99997.03;5049992;28;20016;-56
2021/12/18 06:30:09;;;;;;;36.95;14.70;;;;;;;4.65;100.00;99996.22;5044439;28;20021;-57
2021/12/18 06:32:36;;;;;;;43.25;16.10;;;;;;;4.61;100.00;99997.88;5043775;28;20179;-55
2021/12/18 06:35:02;;;;;;;37.45;15.18;;;;;;;4.61;100.00;100002.16;5047441;28;20028;-55
2021/12/18 06:37:28;;;;;;;38.33;15.70;;;;;;;4.63;100.00;100005.63;5047694;28;20032;-55
2021/12/18 06:39:53;;;;;;;37.60;16.02;;;;;;;4.61;100.00;100004.75;5049351;28;20028;-55
2021/12/18 06:42:19;;;;;;;37.47;16.17;;;;;;;4.65;100.00;100001.38;5046344;28;20091;-55
2021/12/18 06:44:44;;;;;;;39.45;16.27;;;;;;;4.48;100.00;100003.69;5047171;28;20505;-55
2021/12/18 06:47:10;;;;;;;41.78;15.88;;;;;;;4.62;100.00;100006.50;5046121;28;20128;-56
2021/12/18 06:49:35;;;;;;;41.95;16.67;;;;;;;4.53;100.00;100002.03;5048471;28;20050;-55
2021/12/18 06:52:01;;;;;;;40.67;16.15;;;;;;;4.59;100.00;100006.44;5046155;28;20028;-53
2021/12/18 06:54:26;;;;;;;40.15;16.27;;;;;;;4.53;100.00;100014.09;5049703;28;20029;-55
2021/12/18 06:56:52;;;;;;;40.85;16.70;;;;;;;4.15;100.00;100012.63;5046870;28;20040;-55
2021/12/18 06:59:17;;;;;;;37.58;15.82;;;;;;;4.46;100.00;100004.50;5048678;28;20021;-54
2021/12/18 07:01:43;;;;;;;36.35;15.48;;;;;;;4.55;100.00;100015.84;5048334;28;20044;-54
2021/12/18 07:04:09;;;;;;;36.38;15.70;;;;;;;4.47;100.00;100009.72;5045771;28;20322;-54
2021/12/18 07:06:34;;;;;;;32.88;15.00;;;;;;;4.60;100.00;100013.34;5046249;28;20040;-55
2021/12/18 07:08:59;;;;;;;42.65;16.33;;;;;;;4.58;100.00;100010.75;5048016;28;20545;-54
2021/12/18 07:11:25;;;;;;;38.20;15.63;;;;;;;4.53;100.00;100011.53;5046417;28;20040;-54
2021/12/18 07:13:50;;;;;;;36.92;15.93;;;;;;;4.52;100.00;100009.75;5048361;28;20127;-54
2021/12/18 07:16:15;;;;;;;39.92;16.77;;;;;;;4.40;100.00;100018.22;5049808;28;20048;-57
2021/12/18 07:18:41;;;;;;;34.63;15.77;;;;;;;4.52;100.00;100014.94;5051874;28;20054;-55
2021/12/18 07:21:06;;;;;;;34.20;15.55;;;;;;;4.64;100.00;100017.72;5050632;28;20051;-56
2021/12/18 07:23:32;;;;;;;41.05;16.05;;;;;;;4.41;100.00;100028.56;5051905;28;20029;-54
2021/12/18 07:25:57;;;;;;;42.85;17.73;;;;;;;4.78;100.00;100023.97;5052968;28;20044;-56
2021/12/18 07:28:23;;;;;;;40.70;16.10;;;;;;;4.60;100.00;100023.69;5048721;28;20478;-53
2021/12/18 07:30:48;;;;;;;38.28;16.20;;;;;;;4.53;100.00;100025.31;5049879;28;20089;-53
2021/12/18 07:33:14;;;;;;;38.03;16.10;;;;;;;4.58;100.00;100020.22;5051583;28;20103;-53
2021/12/18 07:35:40;;;;;;;30.70;11.90;;;;;;;4.92;100.00;100025.88;5050989;28;20040;-53
2021/12/18 07:38:06;;;;;;;37.00;15.77;;;;;;;4.83;100.00;100017.16;5050587;28;20029;-55
2021/12/18 07:40:33;;;;;;;32.90;15.20;;;;;;;4.91;100.00;100019.00;5050800;28;20056;-54
2021/12/18 07:42:58;;;;;;;40.15;15.43;;;;;;;4.83;100.00;100012.00;5049750;28;20064;-54
2021/12/18 07:45:24;;;;;;;41.63;16.90;;;;;;;4.70;100.00;100020.38;5051160;28;20056;-54
2021/12/18 07:47:49;;;;;;;40.03;16.02;;;;;;;4.54;100.00;100023.59;5059279;28;20582;-53
2021/12/18 07:50:19;;;;;;;36.95;16.33;;;;;;;4.53;100.00;100024.44;5050471;28;20482;-54
2021/12/18 07:52:48;;;;;;;37.05;16.75;;;;;;;4.80;100.00;100022.28;5048928;28;20037;-54
2021/12/18 07:55:13;;;;;;;39.47;16.23;;;;;;;4.69;100.00;100010.91;5051231;28;20031;-56
2021/12/18 07:57:39;;;;;;;34.97;16.05;;;;;;;4.82;100.00;100015.41;5050783;28;20017;-55
2021/12/18 08:00:07;;;;;;;37.97;16.25;;;;;;;4.71;100.00;100016.97;5051142;28;20579;-55
2021/12/18 08:02:33;;;;;;;36.65;15.30;;;;;;;4.80;100.00;100011.94;5048421;28;20518;-54
2021/12/18 08:04:58;;;;;;;35.67;15.48;;;;;;;4.95;100.00;100013.00;5048943;28;20043;-56
2021/12/18 08:07:25;;;;;;;36.20;15.45;;;;;;;5.27;100.00;100009.97;5050127;28;20036;-54
2021/12/18 08:09:50;;;;;;;34.80;13.93;;;;;;;5.11;100.00;100017.53;5050665;28;20032;-53
2021/12/18 08:12:15;;;;;;;36.58;15.57;;;;;;;5.46;100.00;100022.31;5046063;28;20036;-55
2021/12/18 08:14:41;;;;;;;37.28;16.20;;;;;;;5.18;100.00;100023.66;5048793;28;20037;-54
2021/12/18 08:17:06;;;;;;;38.80;16.25;;;;;;;4.90;100.00;100012.06;5049692;28;20033;-54
2021/12/18 08:19:32;;;;;;;37.95;15.45;;;;;;;5.32;100.00;100005.72;5052779;28;20206;-56
2021/12/18 08:21:57;;;;;;;41.85;15.88;;;;;;;5.25;100.00;100003.91;5051569;28;20033;-54
2021/12/18 08:24:22;;;;;;;31.30;14.35;;;;;;;5.09;100.00;100002.84;5055388;28;20040;-56
2021/12/18 08:26:48;;;;;;;40.28;16.95;;;;;;;5.05;100.00;100007.09;5046908;28;20044;-55
2021/12/18 08:29:13;;;;;;;32.60;15.18;;;;;;;5.13;100.00;100007.22;5046551;28;20036;-55
2021/12/18 08:31:39;;;;;;;39.88;16.48;;;;;;;5.39;100.00;100007.53;5047654;28;20032;-54
2021/12/18 08:34:04;;;;;;;37.72;16.25;;;;;;;5.31;100.00;100010.03;5050403;28;20482;-55
2021/12/18 08:36:29;;;;;;;37.17;16.58;;;;;;;5.39;100.00;100013.56;5050651;28;20067;-55
2021/12/18 08:38:55;;;;;;;37.08;16.25;;;;;;;5.43;100.00;100011.03;5049270;28;20020;-55
2021/12/18 08:41:21;;;;;;;36.75;14.77;;;;;;;5.33;100.00;100013.50;5050213;28;20052;-55
2021/12/18 08:43:49;;;;;;;31.23;15.10;;;;;;;5.48;100.00;100009.38;5050083;28;20029;-55
2021/12/18 08:46:15;;;;;;;35.13;15.43;;;;;;;5.41;100.00;100011.00;5050701;28;20942;-55
2021/12/18 08:48:40;;;;;;;34.17;15.02;;;;;;;5.32;100.00;100013.50;5048889;28;20731;-55
2021/12/18 08:51:06;;;;;;;35.17;16.30;;;;;;;5.28;100.00;100009.13;5048170;28;20036;-54
2021/12/18 08:53:31;;;;;;;34.90;16.48;;;;;;;5.27;100.00;100012.56;5051008;28;20032;-54
2021/12/18 08:55:56;;;;;;;33.60;16.02;;;;;;;5.27;100.00;100021.19;5048426;28;20791;-54
2021/12/18 08:58:22;;;;;;;37.92;15.85;;;;;;;5.19;100.00;100015.06;5048748;28;20024;-54
2021/12/18 09:00:47;;;;;;;30.40;14.95;;;;;;;5.48;100.00;100012.81;5050886;28;20101;-55
2021/12/18 09:03:13;;;;;;;38.17;15.63;;;;;;;5.56;100.00;100016.34;5050296;28;20024;-55
2021/12/18 09:05:38;;;;;;;31.45;14.25;;;;;;;5.67;100.00;100013.91;5050220;28;20043;-53
2021/12/18 09:08:04;;;;;;;29.75;13.73;;;;;;;5.39;100.00;100013.56;5046453;28;20028;-53
2021/12/18 09:10:29;;;;;;;27.63;13.70;;;;;;;5.57;100.00;100012.94;5045497;28;20517;-55
2021/12/18 09:12:55;;;;;;;30.15;13.80;;;;;;;5.41;100.00;100005.84;5047858;28;20024;-54
2021/12/18 09:15:21;;;;;;;34.45;13.40;;;;;;;5.37;100.00;100004.06;5047836;28;20037;-54
2021/12/18 09:17:47;;;;;;;26.35;13.43;;;;;;;5.25;100.00;100009.09;5048338;28;20086;-55
2021/12/18 09:20:13;;;;;;;26.58;13.00;;;;;;;5.60;100.00;100007.78;5048534;28;20029;-55
2021/12/18 09:22:38;;;;;;;25.50;12.55;;;;;;;5.46;100.00;100006.75;5057013;28;20017;-55
2021/12/18 09:25:05;;;;;;;24.85;12.57;;;;;;;5.34;100.00;100006.59;5048016;28;20102;-56
2021/12/18 09:27:32;;;;;;;28.27;13.07;;;;;;;5.55;100.00;100011.16;5047223;28;20037;-56
2021/12/18 09:29:57;;;;;;;22.30;12.02;;;;;;;5.52;100.00;100017.19;5048504;28;20039;-57
2021/12/18 09:32:23;;;;;;;22.58;10.80;;;;;;;5.76;100.00;100014.00;5046521;28;20045;-56
2021/12/18 09:34:48;;;;;;;24.00;11.90;;;;;;;5.62;100.00;100012.09;5046891;28;20041;-55
2021/12/18 09:37:14;;;;;;;23.10;11.52;;;;;;;5.77;100.00;100007.09;5050379;28;20197;-58
2021/12/18 09:39:39;;;;;;;25.65;12.07;;;;;;;5.75;100.00;100012.28;5047330;28;20025;-56
2021/12/18 09:42:05;;;;;;;23.27;11.45;;;;;;;5.75;100.00;100003.63;5047103;28;20123;-57
2021/12/18 09:44:32;;;;;;;22.67;11.57;;;;;;;6.00;100.00;100001.31;5047349;28;20036;-55
2021/12/18 09:46:59;;;;;;;22.48;11.85;;;;;;;5.65;100.00;99994.03;5050431;28;20044;-55
2021/12/18 09:49:25;;;;;;;19.63;10.77;;;;;;;5.97;100.00;99995.25;5049967;28;20072;-55
2021/12/18 09:51:51;;;;;;;22.20;11.80;;;;;;;6.05;100.00;100002.25;5047646;28;20065;-55
2021/12/18 09:54:18;;;;;;;21.88;11.60;;;;;;;5.71;100.00;99994.94;5048907;28;20036;-56
2021/12/18 09:56:44;;;;;;;20.92;11.07;;;;;;;5.59;100.00;99990.50;5047430;28;20036;-57
2021/12/18 09:59:09;;;;;;;25.80;11.88;;;;;;;5.46;100.00;99986.06;5046410;28;20028;-55
2021/12/18 10:01:35;;;;;;;20.40;11.18;;;;;;;5.56;100.00;99985.28;5049897;28;20029;-55
2021/12/18 10:04:02;;;;;;;25.30;12.30;;;;;;;5.77;100.00;99978.59;5046252;28;20036;-55
2021/12/18 10:06:44;;;;;;;24.98;12.10;;;;;;;5.93;100.00;99985.66;5049597;28;20064;-54
2021/12/18 10:09:11;;;;;;;22.95;11.48;;;;;;;5.52;100.00;99980.94;5047287;28;20033;-54
2021/12/18 10:11:57;;;;;;;23.98;12.32;;;;;;;6.06;100.00;99985.81;5047977;28;20113;-54
2021/12/18 10:15:02;;;;;;;23.35;12.00;;;;;;;6.03;100.00;99978.00;5049921;28;20040;-55
2021/12/18 10:17:30;;;;;;;21.38;10.75;;;;;;;5.86;100.00;99978.69;5045870;28;20029;-55
2021/12/18 10:20:15;;;;;;;18.38;9.20;;;;;;;6.42;100.00;99974.03;5047890;28;20086;-55
2021/12/18 10:22:46;;;;;;;22.08;11.15;;;;;;;6.17;100.00;99977.28;5048372;28;20056;-54
2021/12/18 10:25:13;;;;;;;22.08;11.40;;;;;;;6.67;100.00;99970.75;5047301;28;20028;-54
2021/12/18 10:27:42;;;;;;;22.50;11.70;;;;;;;6.44;100.00;99975.78;5047130;28;20028;-56
2021/12/18 10:30:20;;;;;;;23.08;12.45;;;;;;;6.49;100.00;99975.81;5046588;28;20490;-55
2021/12/18 10:32:55;;;;;;;27.83;13.50;;;;;;;5.98;100.00;99972.81;5047309;28;20414;-56
2021/12/18 10:35:20;;;;;;;22.90;12.30;;;;;;;5.85;100.00;99976.97;5056055;28;20037;-55
2021/12/18 10:37:46;;;;;;;26.83;12.32;;;;;;;6.20;100.00;99971.28;5050090;28;20047;-55
2021/12/18 10:40:12;;;;;;;26.50;13.23;;;;;;;5.82;100.00;99966.56;5047564;28;20468;-55
2021/12/18 10:42:42;;;;;;;23.33;11.40;;;;;;;6.19;100.00;99961.75;5047248;28;20025;-55
2021/12/18 10:45:15;;;;;;;19.10;9.63;;;;;;;6.35;100.00;99955.81;5049998;28;20678;-55
2021/12/18 10:48:03;;;;;;;16.67;9.50;;;;;;;6.18;100.00;99954.84;5043658;28;20021;-56
2021/12/18 10:50:37;;;;;;;19.65;10.00;;;;;;;6.20;100.00;99958.31;5046273;28;20128;-55
2021/12/18 10:53:10;;;;;;;19.42;10.10;;;;;;;6.30;100.00;99947.16;5049506;28;20103;-56
2021/12/18 10:55:55;;;;;;;19.75;10.88;;;;;;;6.02;100.00;99947.78;5047817;28;20550;-55
2021/12/18 10:58:36;;;;;;;18.48;10.02;;;;;;;6.08;100.00;99945.25;5047815;28;20047;-57
2021/12/18 11:01:14;;;;;;;23.17;11.07;;;;;;;5.93;100.00;99941.63;5049468;28;20041;-55
2021/12/18 11:03:49;;;;;;;17.20;9.50;;;;;;;5.87;100.00;99943.31;5047599;28;20745;-55
2021/12/18 11:06:20;;;;;;;18.17;9.65;;;;;;;6.00;100.00;99936.56;5049626;28;20044;-55
2021/12/18 11:09:13;;;;;;;20.98;10.65;;;;;;;6.01;100.00;99938.28;5046445;28;20035;-56
2021/12/18 11:14:20;;;;;;;14.55;6.88;;;;;;;6.33;100.00;99936.81;5046286;28;20033;-56
2021/12/18 11:16:48;;;;;;;15.18;8.57;;;;;;;6.28;100.00;99925.53;5047128;28;20822;-56
2021/12/18 11:19:16;;;;;;;16.85;9.10;;;;;;;6.27;100.00;99922.97;5044335;28;20028;-55
2021/12/18 11:21:44;;;;;;;15.15;8.50;;;;;;;6.30;100.00;99920.38;5046858;28;20044;-56
2021/12/18 11:24:11;;;;;;;15.52;8.48;;;;;;;6.07;100.00;99922.81;5047200;28;20017;-56
2021/12/18 11:27:09;;;;;;;16.45;8.32;;;;;;;5.88;100.00;99916.53;5045700;28;20641;-56
2021/12/18 11:29:44;;;;;;;15.10;7.72;;;;;;;6.25;100.00;99909.09;5044623;28;20052;-56
2021/12/18 11:32:15;;;;;;;15.52;8.07;;;;;;;6.10;100.00;99896.91;5045274;28;20036;-54
2021/12/18 11:34:42;;;;;;;13.73;7.97;;;;;;;6.10;100.00;99907.25;5047126;28;20658;-56
2021/12/18 11:37:11;;;;;;;13.57;7.32;;;;;;;6.05;100.00;99896.88;5044781;28;20032;-55
2021/12/18 11:39:38;;;;;;;13.88;7.55;;;;;;;5.87;100.00;99889.78;5045949;28;20086;-57
2021/12/18 11:42:05;;;;;;;14.15;7.75;;;;;;;5.84;100.00;99887.16;5047648;28;20083;-55
2021/12/18 11:44:40;;;;;;;15.68;8.32;;;;;;;5.64;100.00;99886.13;5048060;28;20029;-55
2021/12/18 11:47:32;;;;;;;15.68;8.10;;;;;;;5.73;100.00;99883.63;5056015;28;20037;-55
2021/12/18 11:50:19;;;;;;;13.27;3.92;;;;;;;7.14;100.00;99884.47;5047621;28;20029;-54
2021/12/18 11:52:58;;;;;;;15.40;7.28;;;;;;;6.74;100.00;99868.75;5046203;28;20041;-55
2021/12/18 11:55:29;;;;;;;14.57;6.38;;;;;;;7.14;100.00;99871.50;5043865;28;20043;-53
2021/12/18 11:57:59;;;;;;;24.20;9.85;;;;;;;6.73;100.00;99872.22;5020507;28;20021;-57
2021/12/18 12:00:36;;;;;;;20.08;10.15;;;;;;;7.07;100.00;99871.50;5025449;28;20036;-55
2021/12/18 12:03:03;;;;;;;13.23;7.57;;;;;;;6.84;100.00;99863.63;5026523;28;20164;-56